sensor_id;sensor_type;location;lat;lon;timestamp;temperature;humidity
21799;DHT22;24973;47.178;15.316;2023-02-28T00:02:17;0.40;89.10
21799;DHT22;24973;47.178;15.316;2023-02-28T00:05:07;0.30;89.30
21799;DHT22;24973;47.178;15.316;2023-02-28T00:07:57;0.20;89.20
21799;DHT22;24973;47.178;15.316;2023-02-28T00:10:46;0.20;90.30
21799;DHT22;24973;47.178;15.316;2023-02-28T00:13:38;0.10;90.10
21799;DHT22;24973;47.178;15.316;2023-02-28T00:16:27;0.10;90.40
21799;DHT22;24973;47.178;15.316;2023-02-28T00:19:17;0.10;90.60
21799;DHT22;24973;47.178;15.316;2023-02-28T00:22:06;0.00;91.10
21799;DHT22;24973;47.178;15.316;2023-02-28T00:24:55;0.00;91.00
21799;DHT22;24973;47.178;15.316;2023-02-28T00:27:44;0.00;91.10
21799;DHT22;24973;47.178;15.316;2023-02-28T00:30:33;-0.10;91.20
21799;DHT22;24973;47.178;15.316;2023-02-28T00:33:21;-0.20;91.50
21799;DHT22;24973;47.178;15.316;2023-02-28T00:36:12;-0.30;91.80
21799;DHT22;24973;47.178;15.316;2023-02-28T00:39:00;-0.40;92.20
21799;DHT22;24973;47.178;15.316;2023-02-28T00:41:49;-0.50;92.50
21799;DHT22;24973;47.178;15.316;2023-02-28T00:44:38;-0.50;92.80
21799;DHT22;24973;47.178;15.316;2023-02-28T00:47:27;-0.50;92.80
21799;DHT22;24973;47.178;15.316;2023-02-28T00:50:16;-0.50;93.10
21799;DHT22;24973;47.178;15.316;2023-02-28T00:53:06;-0.50;93.20
21799;DHT22;24973;47.178;15.316;2023-02-28T00:55:55;-0.50;93.30
21799;DHT22;24973;47.178;15.316;2023-02-28T00:58:44;-0.50;93.50
21799;DHT22;24973;47.178;15.316;2023-02-28T01:01:32;-0.40;93.20
21799;DHT22;24973;47.178;15.316;2023-02-28T01:04:21;-0.40;93.20
21799;DHT22;24973;47.178;15.316;2023-02-28T01:07:10;-0.30;93.00
21799;DHT22;24973;47.178;15.316;2023-02-28T01:10:00;-0.30;93.00
21799;DHT22;24973;47.178;15.316;2023-02-28T01:12:49;-0.30;92.90
21799;DHT22;24973;47.178;15.316;2023-02-28T01:15:38;-0.30;92.70
21799;DHT22;24973;47.178;15.316;2023-02-28T01:18:30;-0.30;92.70
21799;DHT22;24973;47.178;15.316;2023-02-28T01:21:20;-0.20;92.60
21799;DHT22;24973;47.178;15.316;2023-02-28T01:24:09;-0.20;92.60
21799;DHT22;24973;47.178;15.316;2023-02-28T01:26:59;-0.20;92.80
21799;DHT22;24973;47.178;15.316;2023-02-28T01:29:48;-0.10;92.80
21799;DHT22;24973;47.178;15.316;2023-02-28T01:32:37;-0.10;92.70
21799;DHT22;24973;47.178;15.316;2023-02-28T01:35:25;-0.10;92.60
21799;DHT22;24973;47.178;15.316;2023-02-28T01:38:14;0.00;92.60
21799;DHT22;24973;47.178;15.316;2023-02-28T01:41:10;0.00;93.30
21799;DHT22;24973;47.178;15.316;2023-02-28T01:44:06;0.00;93.60
21799;DHT22;24973;47.178;15.316;2023-02-28T01:47:16;0.00;93.60
21799;DHT22;24973;47.178;15.316;2023-02-28T01:50:08;0.10;93.40
21799;DHT22;24973;47.178;15.316;2023-02-28T01:53:03;0.10;93.50
21799;DHT22;24973;47.178;15.316;2023-02-28T01:55:54;0.10;93.70
21799;DHT22;24973;47.178;15.316;2023-02-28T01:58:43;0.10;93.90
21799;DHT22;24973;47.178;15.316;2023-02-28T02:01:33;0.10;94.00
21799;DHT22;24973;47.178;15.316;2023-02-28T02:04:23;0.10;94.20
21799;DHT22;24973;47.178;15.316;2023-02-28T02:07:15;0.20;94.00
21799;DHT22;24973;47.178;15.316;2023-02-28T02:10:11;0.10;93.90
21799;DHT22;24973;47.178;15.316;2023-02-28T02:13:20;0.10;94.00
21799;DHT22;24973;47.178;15.316;2023-02-28T02:16:33;0.20;94.20
21799;DHT22;24973;47.178;15.316;2023-02-28T02:23:24;0.20;94.30
21799;DHT22;24973;47.178;15.316;2023-02-28T02:26:43;0.20;94.30
21799;DHT22;24973;47.178;15.316;2023-02-28T02:30:03;0.20;94.30
21799;DHT22;24973;47.178;15.316;2023-02-28T02:33:27;0.20;94.40
21799;DHT22;24973;47.178;15.316;2023-02-28T02:36:39;0.20;94.60
21799;DHT22;24973;47.178;15.316;2023-02-28T02:39:41;0.20;94.40
21799;DHT22;24973;47.178;15.316;2023-02-28T02:42:40;0.20;94.30
21799;DHT22;24973;47.178;15.316;2023-02-28T02:45:36;0.20;94.40
21799;DHT22;24973;47.178;15.316;2023-02-28T02:48:30;0.20;94.20
21799;DHT22;24973;47.178;15.316;2023-02-28T02:51:22;0.30;94.70
21799;DHT22;24973;47.178;15.316;2023-02-28T02:54:16;0.20;95.00
21799;DHT22;24973;47.178;15.316;2023-02-28T02:57:09;0.10;95.20
21799;DHT22;24973;47.178;15.316;2023-02-28T03:00:03;0.10;95.30
21799;DHT22;24973;47.178;15.316;2023-02-28T03:02:56;0.10;95.30
21799;DHT22;24973;47.178;15.316;2023-02-28T03:05:46;0.10;95.30
21799;DHT22;24973;47.178;15.316;2023-02-28T03:08:37;0.10;95.60
21799;DHT22;24973;47.178;15.316;2023-02-28T03:11:29;0.00;95.50
21799;DHT22;24973;47.178;15.316;2023-02-28T03:14:39;0.00;95.50
21799;DHT22;24973;47.178;15.316;2023-02-28T03:17:51;-0.10;95.90
21799;DHT22;24973;47.178;15.316;2023-02-28T03:20:50;-0.10;95.70
21799;DHT22;24973;47.178;15.316;2023-02-28T03:23:52;-0.10;95.70
21799;DHT22;24973;47.178;15.316;2023-02-28T03:26:52;0.00;96.10
21799;DHT22;24973;47.178;15.316;2023-02-28T03:29:47;0.00;96.40
21799;DHT22;24973;47.178;15.316;2023-02-28T03:32:42;0.00;96.40
21799;DHT22;24973;47.178;15.316;2023-02-28T03:35:38;0.00;96.40
21799;DHT22;24973;47.178;15.316;2023-02-28T03:38:33;0.00;96.50
21799;DHT22;24973;47.178;15.316;2023-02-28T03:41:27;0.10;96.70
21799;DHT22;24973;47.178;15.316;2023-02-28T03:44:22;0.10;96.80
21799;DHT22;24973;47.178;15.316;2023-02-28T03:47:16;0.10;96.60
21799;DHT22;24973;47.178;15.316;2023-02-28T03:50:10;0.20;96.70
21799;DHT22;24973;47.178;15.316;2023-02-28T03:53:03;0.10;96.70
21799;DHT22;24973;47.178;15.316;2023-02-28T03:55:59;0.10;96.70
21799;DHT22;24973;47.178;15.316;2023-02-28T03:58:55;0.20;96.70
21799;DHT22;24973;47.178;15.316;2023-02-28T04:01:49;0.10;96.50
21799;DHT22;24973;47.178;15.316;2023-02-28T04:04:38;0.10;96.80
21799;DHT22;24973;47.178;15.316;2023-02-28T04:07:35;0.20;97.00
21799;DHT22;24973;47.178;15.316;2023-02-28T04:10:24;0.20;96.80
21799;DHT22;24973;47.178;15.316;2023-02-28T04:13:12;0.20;97.00
21799;DHT22;24973;47.178;15.316;2023-02-28T04:16:01;0.20;97.20
21799;DHT22;24973;47.178;15.316;2023-02-28T04:19:07;0.20;97.20
21799;DHT22;24973;47.178;15.316;2023-02-28T04:21:57;0.10;96.90
21799;DHT22;24973;47.178;15.316;2023-02-28T04:24:45;0.20;96.80
21799;DHT22;24973;47.178;15.316;2023-02-28T04:27:34;0.20;96.80
21799;DHT22;24973;47.178;15.316;2023-02-28T04:30:23;0.20;97.20
21799;DHT22;24973;47.178;15.316;2023-02-28T04:33:12;0.20;97.20
21799;DHT22;24973;47.178;15.316;2023-02-28T04:36:04;0.20;97.30
21799;DHT22;24973;47.178;15.316;2023-02-28T04:38:54;0.20;96.90
21799;DHT22;24973;47.178;15.316;2023-02-28T04:41:43;0.20;97.10
21799;DHT22;24973;47.178;15.316;2023-02-28T04:44:32;0.20;97.70
21799;DHT22;24973;47.178;15.316;2023-02-28T04:47:20;0.20;98.10
21799;DHT22;24973;47.178;15.316;2023-02-28T04:50:10;0.20;98.00
21799;DHT22;24973;47.178;15.316;2023-02-28T04:53:00;0.20;97.80
21799;DHT22;24973;47.178;15.316;2023-02-28T04:55:49;0.20;98.10
21799;DHT22;24973;47.178;15.316;2023-02-28T04:58:37;0.10;98.10
21799;DHT22;24973;47.178;15.316;2023-02-28T05:01:28;0.10;98.10
21799;DHT22;24973;47.178;15.316;2023-02-28T05:04:18;0.00;98.10
21799;DHT22;24973;47.178;15.316;2023-02-28T05:07:06;0.00;98.10
21799;DHT22;24973;47.178;15.316;2023-02-28T05:09:56;0.00;98.50
21799;DHT22;24973;47.178;15.316;2023-02-28T05:12:45;-0.10;98.60
21799;DHT22;24973;47.178;15.316;2023-02-28T05:15:35;-0.10;98.30
21799;DHT22;24973;47.178;15.316;2023-02-28T05:18:23;-0.10;98.00
21799;DHT22;24973;47.178;15.316;2023-02-28T05:21:25;-0.10;97.80
21799;DHT22;24973;47.178;15.316;2023-02-28T05:24:16;-0.10;98.00
21799;DHT22;24973;47.178;15.316;2023-02-28T05:27:11;0.00;98.40
21799;DHT22;24973;47.178;15.316;2023-02-28T05:29:59;0.00;98.70
21799;DHT22;24973;47.178;15.316;2023-02-28T05:32:51;0.00;98.90
21799;DHT22;24973;47.178;15.316;2023-02-28T05:35:41;0.10;98.80
21799;DHT22;24973;47.178;15.316;2023-02-28T05:38:30;0.10;99.00
21799;DHT22;24973;47.178;15.316;2023-02-28T05:41:19;0.10;99.10
21799;DHT22;24973;47.178;15.316;2023-02-28T05:44:10;0.10;99.00
21799;DHT22;24973;47.178;15.316;2023-02-28T05:46:59;0.10;98.90
21799;DHT22;24973;47.178;15.316;2023-02-28T05:49:48;0.10;98.80
21799;DHT22;24973;47.178;15.316;2023-02-28T05:52:37;0.10;99.00
21799;DHT22;24973;47.178;15.316;2023-02-28T05:55:25;0.10;98.80
21799;DHT22;24973;47.178;15.316;2023-02-28T05:58:14;0.00;99.00
21799;DHT22;24973;47.178;15.316;2023-02-28T06:01:32;0.20;99.20
21799;DHT22;24973;47.178;15.316;2023-02-28T06:04:23;0.20;99.30
21799;DHT22;24973;47.178;15.316;2023-02-28T06:07:18;0.10;99.60
21799;DHT22;24973;47.178;15.316;2023-02-28T06:10:07;0.00;99.60
21799;DHT22;24973;47.178;15.316;2023-02-28T06:12:59;0.00;99.60
21799;DHT22;24973;47.178;15.316;2023-02-28T06:15:49;-0.10;99.70
21799;DHT22;24973;47.178;15.316;2023-02-28T06:18:39;-0.10;99.70
21799;DHT22;24973;47.178;15.316;2023-02-28T06:21:29;-0.10;99.40
21799;DHT22;24973;47.178;15.316;2023-02-28T06:24:19;0.00;99.40
21799;DHT22;24973;47.178;15.316;2023-02-28T06:27:07;0.00;99.50
21799;DHT22;24973;47.178;15.316;2023-02-28T06:29:56;-0.10;99.80
21799;DHT22;24973;47.178;15.316;2023-02-28T06:32:45;0.00;99.90
21799;DHT22;24973;47.178;15.316;2023-02-28T06:35:37;0.00;99.90
21799;DHT22;24973;47.178;15.316;2023-02-28T06:38:26;-0.10;99.90
21799;DHT22;24973;47.178;15.316;2023-02-28T06:41:15;0.10;99.90
21799;DHT22;24973;47.178;15.316;2023-02-28T06:44:04;0.10;99.90
21799;DHT22;24973;47.178;15.316;2023-02-28T06:46:53;0.00;99.60
21799;DHT22;24973;47.178;15.316;2023-02-28T06:49:42;0.20;98.90
21799;DHT22;24973;47.178;15.316;2023-02-28T06:52:33;0.20;98.20
21799;DHT22;24973;47.178;15.316;2023-02-28T06:55:24;0.20;98.60
21799;DHT22;24973;47.178;15.316;2023-02-28T06:58:13;0.30;98.50
21799;DHT22;24973;47.178;15.316;2023-02-28T07:01:06;0.40;98.00
21799;DHT22;24973;47.178;15.316;2023-02-28T07:03:55;0.40;97.60
21799;DHT22;24973;47.178;15.316;2023-02-28T07:06:43;0.50;97.40
21799;DHT22;24973;47.178;15.316;2023-02-28T07:09:33;0.50;97.50
21799;DHT22;24973;47.178;15.316;2023-02-28T07:12:22;0.60;97.20
21799;DHT22;24973;47.178;15.316;2023-02-28T07:15:11;0.60;97.40
21799;DHT22;24973;47.178;15.316;2023-02-28T07:18:00;0.70;97.30
21799;DHT22;24973;47.178;15.316;2023-02-28T07:20:48;0.70;97.20
21799;DHT22;24973;47.178;15.316;2023-02-28T07:23:38;0.80;97.10
21799;DHT22;24973;47.178;15.316;2023-02-28T07:26:29;0.80;96.40
21799;DHT22;24973;47.178;15.316;2023-02-28T07:29:18;0.80;96.10
21799;DHT22;24973;47.178;15.316;2023-02-28T07:32:06;0.80;96.10
21799;DHT22;24973;47.178;15.316;2023-02-28T07:34:55;0.80;96.30
21799;DHT22;24973;47.178;15.316;2023-02-28T07:37:44;0.80;96.40
21799;DHT22;24973;47.178;15.316;2023-02-28T07:40:35;0.80;96.00
21799;DHT22;24973;47.178;15.316;2023-02-28T07:43:25;0.60;96.00
21799;DHT22;24973;47.178;15.316;2023-02-28T07:46:16;0.50;96.10
21799;DHT22;24973;47.178;15.316;2023-02-28T07:49:07;-0.30;96.00
21799;DHT22;24973;47.178;15.316;2023-02-28T07:51:55;0.60;96.50
21799;DHT22;24973;47.178;15.316;2023-02-28T07:54:44;0.60;96.60
21799;DHT22;24973;47.178;15.316;2023-02-28T07:57:33;0.60;96.50
21799;DHT22;24973;47.178;15.316;2023-02-28T08:00:24;0.60;96.60
21799;DHT22;24973;47.178;15.316;2023-02-28T08:03:13;0.70;96.60
21799;DHT22;24973;47.178;15.316;2023-02-28T08:06:07;0.80;96.70
21799;DHT22;24973;47.178;15.316;2023-02-28T08:09:03;0.90;96.70
21799;DHT22;24973;47.178;15.316;2023-02-28T08:11:52;1.00;96.40
21799;DHT22;24973;47.178;15.316;2023-02-28T08:14:40;1.00;96.40
21799;DHT22;24973;47.178;15.316;2023-02-28T08:17:30;1.10;96.70
21799;DHT22;24973;47.178;15.316;2023-02-28T08:20:21;1.30;95.90
21799;DHT22;24973;47.178;15.316;2023-02-28T08:23:10;1.10;95.80
21799;DHT22;24973;47.178;15.316;2023-02-28T08:25:59;1.00;96.30
21799;DHT22;24973;47.178;15.316;2023-02-28T08:28:47;1.30;96.50
21799;DHT22;24973;47.178;15.316;2023-02-28T08:31:36;1.30;96.40
21799;DHT22;24973;47.178;15.316;2023-02-28T08:34:26;1.40;95.90
21799;DHT22;24973;47.178;15.316;2023-02-28T08:37:15;1.50;95.20
21799;DHT22;24973;47.178;15.316;2023-02-28T08:40:05;1.30;95.30
21799;DHT22;24973;47.178;15.316;2023-02-28T08:42:55;1.40;95.60
21799;DHT22;24973;47.178;15.316;2023-02-28T08:45:43;1.40;95.80
21799;DHT22;24973;47.178;15.316;2023-02-28T08:48:34;1.70;95.90
21799;DHT22;24973;47.178;15.316;2023-02-28T08:51:26;2.40;96.30
21799;DHT22;24973;47.178;15.316;2023-02-28T08:54:15;1.90;96.10
21799;DHT22;24973;47.178;15.316;2023-02-28T08:57:06;2.10;96.00
21799;DHT22;24973;47.178;15.316;2023-02-28T08:59:55;2.20;95.70
21799;DHT22;24973;47.178;15.316;2023-02-28T09:02:44;2.20;95.60
21799;DHT22;24973;47.178;15.316;2023-02-28T09:05:33;2.40;95.50
21799;DHT22;24973;47.178;15.316;2023-02-28T09:08:23;2.30;95.20
21799;DHT22;24973;47.178;15.316;2023-02-28T09:11:12;2.40;95.00
21799;DHT22;24973;47.178;15.316;2023-02-28T09:14:02;2.40;94.80
21799;DHT22;24973;47.178;15.316;2023-02-28T09:16:51;2.50;94.80
21799;DHT22;24973;47.178;15.316;2023-02-28T09:19:40;2.40;95.00
21799;DHT22;24973;47.178;15.316;2023-02-28T09:22:29;2.50;94.60
21799;DHT22;24973;47.178;15.316;2023-02-28T09:25:19;2.40;94.60
21799;DHT22;24973;47.178;15.316;2023-02-28T09:28:08;2.40;94.60
21799;DHT22;24973;47.178;15.316;2023-02-28T09:30:58;2.40;94.60
21799;DHT22;24973;47.178;15.316;2023-02-28T09:33:47;2.50;94.40
21799;DHT22;24973;47.178;15.316;2023-02-28T09:36:36;2.50;93.80
21799;DHT22;24973;47.178;15.316;2023-02-28T09:39:31;2.50;93.80
21799;DHT22;24973;47.178;15.316;2023-02-28T09:42:31;2.40;94.00
21799;DHT22;24973;47.178;15.316;2023-02-28T09:45:24;2.60;94.10
21799;DHT22;24973;47.178;15.316;2023-02-28T09:48:19;2.60;94.00
21799;DHT22;24973;47.178;15.316;2023-02-28T09:51:21;2.70;93.70
21799;DHT22;24973;47.178;15.316;2023-02-28T09:54:19;2.70;93.60
21799;DHT22;24973;47.178;15.316;2023-02-28T09:57:16;3.00;93.60
21799;DHT22;24973;47.178;15.316;2023-02-28T10:00:15;3.00;93.30
21799;DHT22;24973;47.178;15.316;2023-02-28T10:03:24;3.10;93.00
21799;DHT22;24973;47.178;15.316;2023-02-28T10:06:17;3.10;93.00
21799;DHT22;24973;47.178;15.316;2023-02-28T10:09:11;3.20;93.20
21799;DHT22;24973;47.178;15.316;2023-02-28T10:12:04;3.40;92.90
21799;DHT22;24973;47.178;15.316;2023-02-28T10:14:54;3.50;92.30
21799;DHT22;24973;47.178;15.316;2023-02-28T10:17:47;3.50;91.80
21799;DHT22;24973;47.178;15.316;2023-02-28T10:20:41;3.30;91.70
21799;DHT22;24973;47.178;15.316;2023-02-28T10:23:34;3.60;92.10
21799;DHT22;24973;47.178;15.316;2023-02-28T10:26:26;3.80;91.90
21799;DHT22;24973;47.178;15.316;2023-02-28T10:29:17;3.90;91.90
21799;DHT22;24973;47.178;15.316;2023-02-28T10:32:06;4.00;91.70
21799;DHT22;24973;47.178;15.316;2023-02-28T10:34:59;4.00;91.00
21799;DHT22;24973;47.178;15.316;2023-02-28T10:37:50;4.20;91.00
21799;DHT22;24973;47.178;15.316;2023-02-28T10:40:40;4.10;90.70
21799;DHT22;24973;47.178;15.316;2023-02-28T10:43:28;4.40;90.30
21799;DHT22;24973;47.178;15.316;2023-02-28T10:46:19;4.20;88.90
21799;DHT22;24973;47.178;15.316;2023-02-28T10:49:15;4.20;89.00
21799;DHT22;24973;47.178;15.316;2023-02-28T10:52:09;4.30;88.40
21799;DHT22;24973;47.178;15.316;2023-02-28T10:55:15;3.90;87.90
21799;DHT22;24973;47.178;15.316;2023-02-28T10:58:21;4.20;87.40
21799;DHT22;24973;47.178;15.316;2023-02-28T11:01:14;4.40;87.00
21799;DHT22;24973;47.178;15.316;2023-02-28T11:04:17;4.30;87.90
21799;DHT22;24973;47.178;15.316;2023-02-28T11:07:18;4.30;87.60
21799;DHT22;24973;47.178;15.316;2023-02-28T11:10:18;4.50;87.90
21799;DHT22;24973;47.178;15.316;2023-02-28T11:13:17;4.30;86.70
21799;DHT22;24973;47.178;15.316;2023-02-28T11:16:10;4.40;88.00
21799;DHT22;24973;47.178;15.316;2023-02-28T11:19:02;4.20;88.70
21799;DHT22;24973;47.178;15.316;2023-02-28T11:21:56;4.30;88.20
21799;DHT22;24973;47.178;15.316;2023-02-28T11:24:50;4.40;89.30
21799;DHT22;24973;47.178;15.316;2023-02-28T11:27:45;4.60;89.40
21799;DHT22;24973;47.178;15.316;2023-02-28T11:30:38;4.90;89.00
21799;DHT22;24973;47.178;15.316;2023-02-28T11:33:29;4.70;86.20
21799;DHT22;24973;47.178;15.316;2023-02-28T11:36:21;4.70;87.20
21799;DHT22;24973;47.178;15.316;2023-02-28T11:39:12;4.80;87.90
21799;DHT22;24973;47.178;15.316;2023-02-28T11:42:35;5.10;88.60
21799;DHT22;24973;47.178;15.316;2023-02-28T11:45:49;5.50;86.90
21799;DHT22;24973;47.178;15.316;2023-02-28T11:48:52;5.90;86.20
21799;DHT22;24973;47.178;15.316;2023-02-28T11:51:49;6.10;85.80
21799;DHT22;24973;47.178;15.316;2023-02-28T11:54:58;6.30;85.70
21799;DHT22;24973;47.178;15.316;2023-02-28T11:58:24;6.50;88.10
21799;DHT22;24973;47.178;15.316;2023-02-28T12:04:52;6.40;82.40
21799;DHT22;24973;47.178;15.316;2023-02-28T12:07:55;6.20;82.90
21799;DHT22;24973;47.178;15.316;2023-02-28T12:10:58;6.10;83.00
21799;DHT22;24973;47.178;15.316;2023-02-28T12:14:03;6.20;82.60
21799;DHT22;24973;47.178;15.316;2023-02-28T12:17:12;6.40;83.20
21799;DHT22;24973;47.178;15.316;2023-02-28T12:20:16;6.60;82.20
21799;DHT22;24973;47.178;15.316;2023-02-28T12:23:35;6.60;80.30
21799;DHT22;24973;47.178;15.316;2023-02-28T12:26:36;6.70;81.20
21799;DHT22;24973;47.178;15.316;2023-02-28T12:29:29;6.80;80.00
21799;DHT22;24973;47.178;15.316;2023-02-28T12:32:23;6.80;80.40
21799;DHT22;24973;47.178;15.316;2023-02-28T12:35:17;7.10;79.90
21799;DHT22;24973;47.178;15.316;2023-02-28T12:38:14;7.20;79.80
21799;DHT22;24973;47.178;15.316;2023-02-28T12:41:12;7.40;79.30
21799;DHT22;24973;47.178;15.316;2023-02-28T12:44:08;7.60;78.90
21799;DHT22;24973;47.178;15.316;2023-02-28T12:47:03;7.70;77.10
21799;DHT22;24973;47.178;15.316;2023-02-28T12:49:59;7.60;77.20
21799;DHT22;24973;47.178;15.316;2023-02-28T12:52:58;7.40;76.10
21799;DHT22;24973;47.178;15.316;2023-02-28T12:55:52;6.90;77.60
21799;DHT22;24973;47.178;15.316;2023-02-28T12:58:49;6.50;79.60
21799;DHT22;24973;47.178;15.316;2023-02-28T13:01:53;6.40;79.70
21799;DHT22;24973;47.178;15.316;2023-02-28T13:09:03;6.00;79.80
21799;DHT22;24973;47.178;15.316;2023-02-28T13:11:54;6.10;79.80
21799;DHT22;24973;47.178;15.316;2023-02-28T13:14:44;6.40;81.60
21799;DHT22;24973;47.178;15.316;2023-02-28T13:17:34;6.60;81.00
21799;DHT22;24973;47.178;15.316;2023-02-28T13:20:26;6.70;81.00
21799;DHT22;24973;47.178;15.316;2023-02-28T13:23:37;7.80;81.10
21799;DHT22;24973;47.178;15.316;2023-02-28T13:27:31;8.50;79.80
21799;DHT22;24973;47.178;15.316;2023-02-28T13:31:02;9.20;75.50
21799;DHT22;24973;47.178;15.316;2023-02-28T13:34:15;9.30;74.80
21799;DHT22;24973;47.178;15.316;2023-02-28T13:37:35;9.50;75.00
21799;DHT22;24973;47.178;15.316;2023-02-28T13:40:31;9.70;73.10
21799;DHT22;24973;47.178;15.316;2023-02-28T13:44:00;9.90;73.20
21799;DHT22;24973;47.178;15.316;2023-02-28T13:47:21;10.10;71.00
21799;DHT22;24973;47.178;15.316;2023-02-28T13:50:23;9.70;70.20
21799;DHT22;24973;47.178;15.316;2023-02-28T13:53:46;9.40;71.10
21799;DHT22;24973;47.178;15.316;2023-02-28T13:56:46;9.10;71.30
21799;DHT22;24973;47.178;15.316;2023-02-28T13:59:46;8.90;72.00
21799;DHT22;24973;47.178;15.316;2023-02-28T14:02:51;8.80;72.70
21799;DHT22;24973;47.178;15.316;2023-02-28T14:06:14;8.80;72.80
21799;DHT22;24973;47.178;15.316;2023-02-28T14:09:19;8.70;73.20
21799;DHT22;24973;47.178;15.316;2023-02-28T14:15:56;7.80;72.70
21799;DHT22;24973;47.178;15.316;2023-02-28T14:18:49;6.50;75.20
21799;DHT22;24973;47.178;15.316;2023-02-28T14:21:49;6.00;76.60
21799;DHT22;24973;47.178;15.316;2023-02-28T14:25:04;5.80;78.90
21799;DHT22;24973;47.178;15.316;2023-02-28T14:28:06;5.50;80.30
21799;DHT22;24973;47.178;15.316;2023-02-28T14:31:06;5.40;81.80
21799;DHT22;24973;47.178;15.316;2023-02-28T14:34:10;5.60;81.60
21799;DHT22;24973;47.178;15.316;2023-02-28T14:37:14;5.80;81.30
21799;DHT22;24973;47.178;15.316;2023-02-28T14:40:12;5.90;80.90
21799;DHT22;24973;47.178;15.316;2023-02-28T14:43:05;6.20;80.90
21799;DHT22;24973;47.178;15.316;2023-02-28T14:45:56;6.30;80.80
21799;DHT22;24973;47.178;15.316;2023-02-28T14:48:47;6.40;80.00
21799;DHT22;24973;47.178;15.316;2023-02-28T14:51:36;6.30;79.40
21799;DHT22;24973;47.178;15.316;2023-02-28T14:54:26;6.10;80.30
21799;DHT22;24973;47.178;15.316;2023-02-28T14:57:24;6.10;80.90
21799;DHT22;24973;47.178;15.316;2023-02-28T15:00:21;6.20;79.40
21799;DHT22;24973;47.178;15.316;2023-02-28T15:03:19;6.20;79.70
21799;DHT22;24973;47.178;15.316;2023-02-28T15:06:14;5.80;80.60
21799;DHT22;24973;47.178;15.316;2023-02-28T15:09:10;5.50;81.80
21799;DHT22;24973;47.178;15.316;2023-02-28T15:12:03;5.20;82.80
21799;DHT22;24973;47.178;15.316;2023-02-28T15:14:52;4.90;83.60
21799;DHT22;24973;47.178;15.316;2023-02-28T15:17:44;4.70;85.10
21799;DHT22;24973;47.178;15.316;2023-02-28T15:20:35;4.70;85.50
21799;DHT22;24973;47.178;15.316;2023-02-28T15:23:27;4.80;85.10
21799;DHT22;24973;47.178;15.316;2023-02-28T15:26:16;4.70;85.30
21799;DHT22;24973;47.178;15.316;2023-02-28T15:29:15;4.60;85.20
21799;DHT22;24973;47.178;15.316;2023-02-28T15:32:06;4.50;85.90
21799;DHT22;24973;47.178;15.316;2023-02-28T15:34:56;4.40;86.00
21799;DHT22;24973;47.178;15.316;2023-02-28T15:37:48;4.40;86.20
21799;DHT22;24973;47.178;15.316;2023-02-28T15:40:42;4.40;86.00
21799;DHT22;24973;47.178;15.316;2023-02-28T15:43:33;4.40;86.40
21799;DHT22;24973;47.178;15.316;2023-02-28T15:46:24;4.40;88.20
21799;DHT22;24973;47.178;15.316;2023-02-28T15:49:18;4.30;88.10
21799;DHT22;24973;47.178;15.316;2023-02-28T15:52:13;4.20;89.00
21799;DHT22;24973;47.178;15.316;2023-02-28T15:55:09;3.90;89.80
21799;DHT22;24973;47.178;15.316;2023-02-28T15:58:01;3.70;90.50
21799;DHT22;24973;47.178;15.316;2023-02-28T16:01:16;3.50;90.70
21799;DHT22;24973;47.178;15.316;2023-02-28T16:04:15;3.30;91.10
21799;DHT22;24973;47.178;15.316;2023-02-28T16:07:05;3.20;91.40
21799;DHT22;24973;47.178;15.316;2023-02-28T16:10:00;3.10;91.60
21799;DHT22;24973;47.178;15.316;2023-02-28T16:12:48;3.10;92.00
21799;DHT22;24973;47.178;15.316;2023-02-28T16:15:38;3.00;92.40
21799;DHT22;24973;47.178;15.316;2023-02-28T16:18:30;2.90;92.80
21799;DHT22;24973;47.178;15.316;2023-02-28T16:21:20;2.90;92.60
21799;DHT22;24973;47.178;15.316;2023-02-28T16:24:09;2.80;92.60
21799;DHT22;24973;47.178;15.316;2023-02-28T16:26:58;2.80;92.70
21799;DHT22;24973;47.178;15.316;2023-02-28T16:29:47;2.70;93.10
21799;DHT22;24973;47.178;15.316;2023-02-28T16:32:36;2.70;93.00
21799;DHT22;24973;47.178;15.316;2023-02-28T16:35:25;2.70;93.00
21799;DHT22;24973;47.178;15.316;2023-02-28T16:38:15;2.60;93.20
21799;DHT22;24973;47.178;15.316;2023-02-28T16:41:05;2.50;93.20
21799;DHT22;24973;47.178;15.316;2023-02-28T16:43:56;2.40;93.90
21799;DHT22;24973;47.178;15.316;2023-02-28T16:46:47;2.30;94.30
21799;DHT22;24973;47.178;15.316;2023-02-28T16:49:35;2.20;94.70
21799;DHT22;24973;47.178;15.316;2023-02-28T16:52:24;2.10;95.00
21799;DHT22;24973;47.178;15.316;2023-02-28T16:55:15;0.30;94.80
21799;DHT22;24973;47.178;15.316;2023-02-28T16:58:04;1.90;95.40
21799;DHT22;24973;47.178;15.316;2023-02-28T17:00:53;1.80;95.30
21799;DHT22;24973;47.178;15.316;2023-02-28T17:03:42;1.80;95.60
21799;DHT22;24973;47.178;15.316;2023-02-28T17:06:31;1.70;95.70
21799;DHT22;24973;47.178;15.316;2023-02-28T17:09:22;1.70;95.80
21799;DHT22;24973;47.178;15.316;2023-02-28T17:12:24;1.60;96.00
21799;DHT22;24973;47.178;15.316;2023-02-28T17:15:14;1.50;96.70
21799;DHT22;24973;47.178;15.316;2023-02-28T17:18:05;1.30;97.00
21799;DHT22;24973;47.178;15.316;2023-02-28T17:20:55;1.30;96.90
21799;DHT22;24973;47.178;15.316;2023-02-28T17:23:45;1.20;97.20
21799;DHT22;24973;47.178;15.316;2023-02-28T17:26:34;1.10;97.70
21799;DHT22;24973;47.178;15.316;2023-02-28T17:29:24;0.90;97.60
21799;DHT22;24973;47.178;15.316;2023-02-28T17:32:13;1.00;98.00
21799;DHT22;24973;47.178;15.316;2023-02-28T17:35:05;0.90;98.40
21799;DHT22;24973;47.178;15.316;2023-02-28T17:37:55;0.80;98.70
21799;DHT22;24973;47.178;15.316;2023-02-28T17:40:43;0.80;98.90
21799;DHT22;24973;47.178;15.316;2023-02-28T17:43:32;0.80;99.10
21799;DHT22;24973;47.178;15.316;2023-02-28T17:46:24;0.80;99.60
21799;DHT22;24973;47.178;15.316;2023-02-28T17:49:13;0.70;99.60
21799;DHT22;24973;47.178;15.316;2023-02-28T17:52:02;0.70;99.80
21799;DHT22;24973;47.178;15.316;2023-02-28T17:54:50;0.60;99.80
21799;DHT22;24973;47.178;15.316;2023-02-28T17:57:39;0.60;99.90
21799;DHT22;24973;47.178;15.316;2023-02-28T18:00:30;0.50;99.90
21799;DHT22;24973;47.178;15.316;2023-02-28T18:03:22;0.50;99.90
21799;DHT22;24973;47.178;15.316;2023-02-28T18:06:14;0.60;99.90
21799;DHT22;24973;47.178;15.316;2023-02-28T18:09:05;0.60;99.90
21799;DHT22;24973;47.178;15.316;2023-02-28T18:11:55;0.60;99.90
21799;DHT22;24973;47.178;15.316;2023-02-28T18:14:44;0.60;99.90
21799;DHT22;24973;47.178;15.316;2023-02-28T18:17:34;0.60;99.90
21799;DHT22;24973;47.178;15.316;2023-02-28T18:20:25;0.70;99.90
21799;DHT22;24973;47.178;15.316;2023-02-28T18:23:15;0.70;99.90
21799;DHT22;24973;47.178;15.316;2023-02-28T18:26:07;0.70;99.90
21799;DHT22;24973;47.178;15.316;2023-02-28T18:28:56;0.70;99.90
21799;DHT22;24973;47.178;15.316;2023-02-28T18:31:44;0.60;99.90
21799;DHT22;24973;47.178;15.316;2023-02-28T18:34:33;0.60;99.90